Flight Track Log - Related Links

Times and Time Zones

All times are in EST time to prevent confusion due to time zone crossing. See the GUG716 flight status page for this flight to view local times or setup timezone preferences in your user account.


Time Position Orientation Groundspeed Altitude Reporting Facility
EST Latitude Longitude Course Direction KTS MPH feet Rate Location/Type
Sun 12:34:00 PM 11.1812 -85.2871 318° Northwest  Level Estimated
Sun 12:35:00 PM 11.2268 -85.3287 318° Northwest  Level Estimated
Sun 12:36:00 PM 11.2724 -85.3704 318° Northwest  Level Estimated
Sun 12:37:00 PM 11.3180 -85.4120 318° Northwest  Level Estimated
Sun 12:38:00 PM 11.3635 -85.4537 318° Northwest  Level Estimated
Sun 12:39:00 PM 11.4091 -85.4954 318° Northwest  Level Estimated
Sun 12:40:00 PM 11.4547 -85.5371 318° Northwest  Level Estimated
Sun 12:41:00 PM 11.5002 -85.5788 318° Northwest  Level Estimated
Sun 12:42:00 PM 11.5458 -85.6206 318° Northwest  Level Estimated
Sun 12:43:00 PM 11.5913 -85.6623 318° Northwest  Level Estimated
Sun 12:44:00 PM 11.6369 -85.7041 318° Northwest  Level Estimated
Sun 12:45:00 PM 11.6824 -85.7459 318° Northwest  Level Estimated
Sun 12:46:00 PM 11.7279 -85.7877 318° Northwest  Level Estimated
Sun 12:47:00 PM 11.7734 -85.8295 318° Northwest  Level Estimated
Sun 12:48:00 PM 11.8189 -85.8713 318° Northwest  Level Estimated
Sun 12:49:00 PM 11.8645 -85.9131 318° Northwest  Level Estimated
Sun 12:50:00 PM 11.9100 -85.9549 318° Northwest  Level Estimated
Sun 12:51:00 PM 11.9555 -85.9968 318° Northwest  Level Estimated
Sun 12:52:00 PM 12.0009 -86.0387 318° Northwest  Level Estimated
Sun 12:53:00 PM 12.0464 -86.0806 318° Northwest  Level Estimated
Sun 12:54:00 PM 12.0919 -86.1225 318° Northwest  Level Estimated
Sun 12:55:00 PM 12.1374 -86.1644 318° Northwest  Level Estimated
Sun 12:56:00 PM 12.1415 -86.1682 318° Northwest  Level Estimated
Sun 12:57:00 PM 12.1415 -86.1682 26° Northeast  Level Estimated
Sun 12:58:00 PM 12.1415 -86.1682 26° Northeast  Level Estimated
Sun 12:59:00 PM 12.1415 -86.1682 26° Northeast  Level Estimated
Sun 01:00:00 PM 12.1415 -86.1682 26° Northeast  Level Estimated
Sun 01:01:00 PM 12.1415 -86.1682 26° Northeast  Level Estimated
Sun 01:02:00 PM 12.1415 -86.1682 26° Northeast  Level Estimated
Sun 01:03:00 PM 12.1415 -86.1682 26° Northeast  Level Estimated
Sun 01:04:00 PM 12.1415 -86.1682 26° Northeast  Level Estimated
Sun 01:05:00 PM 12.1415 -86.1682 26° Northeast  Level Estimated
Sun 01:06:00 PM 12.1415 -86.1682 26° Northeast  Level Estimated
Sun 01:07:00 PM 12.1415 -86.1682 26° Northeast  Level Estimated
Sun 01:08:00 PM 12.1415 -86.1682 26° Northeast  Level Estimated
Sun 01:09:00 PM 12.1415 -86.1682 26° Northeast  Level Estimated

Login

Don't have an account? Register now (free) for customized features, flight alerts, and more!